Time;durP1;ratioP1;P1;durP2;ratioP2;P2;SDS_P1;SDS_P2;PMS_P1;PMS_P2;Temp;Humidity;BMP_temperature;BMP_pressure;BME280_temperature;BME280_humidity;BME280_pressure;Samples;Min_cycle;Max_cycle;Signal;HPM_P1;HPM_P2
2021/05/22 00:01:19;;;;;;;1.50;1.00;;;;;;;;;;4993748;28;20421;-69
2021/05/22 00:03:45;;;;;;;1.63;1.00;;;;;;;;;;4996437;28;20804;-67
2021/05/22 00:06:12;;;;;;;4.47;1.00;;;;;;;;;;4995025;28;20447;-67
2021/05/22 00:08:38;;;;;;;1.93;1.00;;;;;;;;;;4996671;28;20487;-67
2021/05/22 00:11:04;;;;;;;1.67;0.90;;;;;;;;;;4995238;28;20439;-67
2021/05/22 00:13:30;;;;;;;1.70;1.03;;;;;;;;;;4991467;28;20480;-67
2021/05/22 00:15:56;;;;;;;2.43;1.17;;;;;;;;;;4989944;28;20498;-67
2021/05/22 00:18:22;;;;;;;1.40;0.90;;;;;;;;;;4996011;28;20423;-67
2021/05/22 00:20:48;;;;;;;1.60;0.93;;;;;;;;;;4994182;28;20444;-67
2021/05/22 00:23:15;;;;;;;1.80;1.30;;;;;;;;;;4994750;28;20420;-67
2021/05/22 00:25:41;;;;;;;2.67;1.10;;;;;;;;;;4984422;28;20426;-67
2021/05/22 00:28:07;;;;;;;1.80;1.07;;;;;;;;;;4976248;28;20422;-67
2021/05/22 00:30:34;;;;;;;1.90;1.07;;;;;;;;;;4976269;28;20425;-67
2021/05/22 00:33:00;;;;;;;1.70;1.03;;;;;;;;;;4976373;28;20576;-67
2021/05/22 00:35:26;;;;;;;1.53;1.00;;;;;;;;;;4976133;28;20424;-67
2021/05/22 00:37:52;;;;;;;1.73;0.90;;;;;;;;;;4976388;28;20432;-67
2021/05/22 00:40:18;;;;;;;1.43;1.10;;;;;;;;;;4982755;28;20413;-67
2021/05/22 00:42:45;;;;;;;3.10;1.47;;;;;;;;;;4995716;28;20535;-67
2021/05/22 00:45:21;;;;;;;1.97;1.10;;;;;;;;;;4988610;28;20532;-67
2021/05/22 00:47:49;;;;;;;1.50;1.00;;;;;;;;;;4976011;28;20504;-67
2021/05/22 00:50:18;;;;;;;1.40;0.80;;;;;;;;;;4981900;28;20777;-67
2021/05/22 00:52:44;;;;;;;1.53;1.00;;;;;;;;;;4995253;28;20492;-67
2021/05/22 00:55:11;;;;;;;2.70;1.00;;;;;;;;;;4988740;28;20425;-67
2021/05/22 00:57:39;;;;;;;1.70;1.20;;;;;;;;;;4975758;28;20429;-67
2021/05/22 01:00:07;;;;;;;3.43;1.07;;;;;;;;;;4979975;28;20425;-67
2021/05/22 01:02:34;;;;;;;1.73;0.93;;;;;;;;;;4995460;28;20806;-67
2021/05/22 01:05:00;;;;;;;2.40;1.10;;;;;;;;;;4993657;28;20445;-67
2021/05/22 01:07:26;;;;;;;3.53;0.90;;;;;;;;;;4994151;28;20432;-67
2021/05/22 01:09:53;;;;;;;1.93;1.07;;;;;;;;;;4992165;28;20429;-67
2021/05/22 01:12:22;;;;;;;1.90;1.00;;;;;;;;;;5006806;28;20460;-67
2021/05/22 01:14:54;;;;;;;1.30;0.87;;;;;;;;;;4976427;28;20455;-68
2021/05/22 01:17:20;;;;;;;2.30;1.10;;;;;;;;;;4994816;28;20451;-67
2021/05/22 01:19:55;;;;;;;1.60;1.00;;;;;;;;;;4993411;28;20400;-68
2021/05/22 01:22:24;;;;;;;2.47;0.80;;;;;;;;;;4994720;28;20492;-67
2021/05/22 01:24:54;;;;;;;1.47;0.90;;;;;;;;;;4995814;28;20416;-67
2021/05/22 01:27:20;;;;;;;1.57;1.00;;;;;;;;;;4993943;28;20463;-67
2021/05/22 01:29:47;;;;;;;1.60;1.00;;;;;;;;;;4992563;28;20432;-66
2021/05/22 01:32:13;;;;;;;2.13;1.00;;;;;;;;;;4989827;28;20420;-67
2021/05/22 01:34:39;;;;;;;1.93;1.00;;;;;;;;;;4994501;28;20456;-67
2021/05/22 01:37:06;;;;;;;1.50;0.87;;;;;;;;;;4993505;28;20424;-66
2021/05/22 01:39:32;;;;;;;1.87;1.07;;;;;;;;;;4994701;28;20452;-67
2021/05/22 01:41:58;;;;;;;1.90;0.90;;;;;;;;;;4993455;28;20631;-67
2021/05/22 01:44:25;;;;;;;2.57;0.80;;;;;;;;;;4994384;28;20432;-67
2021/05/22 01:46:53;;;;;;;1.87;0.80;;;;;;;;;;4993178;28;20524;-66
2021/05/22 01:49:20;;;;;;;1.93;0.90;;;;;;;;;;4994213;28;20432;-67
2021/05/22 01:51:47;;;;;;;1.80;0.90;;;;;;;;;;4992994;28;20448;-67
2021/05/22 01:54:13;;;;;;;1.30;0.80;;;;;;;;;;5025645;28;20454;-67
2021/05/22 01:56:40;;;;;;;1.50;0.80;;;;;;;;;;4992708;28;20560;-66
2021/05/22 01:59:06;;;;;;;1.30;0.70;;;;;;;;;;4993492;28;20898;-67
2021/05/22 02:01:32;;;;;;;1.60;0.90;;;;;;;;;;4989298;28;20429;-67
2021/05/22 02:04:03;;;;;;;2.33;0.73;;;;;;;;;;4974874;28;20409;-67
2021/05/22 02:06:31;;;;;;;1.50;0.80;;;;;;;;;;4977987;28;20421;-67
2021/05/22 02:08:59;;;;;;;1.40;0.90;;;;;;;;;;4994072;28;20452;-67
2021/05/22 02:11:29;;;;;;;1.50;0.80;;;;;;;;;;4992911;28;20917;-67
2021/05/22 02:13:56;;;;;;;1.37;0.80;;;;;;;;;;4993863;28;20456;-67
2021/05/22 02:16:25;;;;;;;1.30;0.70;;;;;;;;;;4992769;28;20565;-67
2021/05/22 02:18:52;;;;;;;1.80;0.93;;;;;;;;;;4993798;28;20460;-67
2021/05/22 02:21:19;;;;;;;1.30;0.70;;;;;;;;;;4992958;28;20401;-67
2021/05/22 02:23:47;;;;;;;3.00;0.80;;;;;;;;;;4993694;28;20412;-67
2021/05/22 02:26:14;;;;;;;1.70;0.90;;;;;;;;;;4989958;28;20963;-67
2021/05/22 02:28:41;;;;;;;1.30;0.90;;;;;;;;;;4993470;28;20431;-66
2021/05/22 02:31:08;;;;;;;1.33;0.80;;;;;;;;;;4992947;28;20409;-67
2021/05/22 02:33:34;;;;;;;1.70;0.87;;;;;;;;;;4973992;28;20569;-66
2021/05/22 02:36:01;;;;;;;1.20;0.70;;;;;;;;;;4974138;28;20433;-66
2021/05/22 02:38:28;;;;;;;2.83;0.80;;;;;;;;;;4992242;28;20448;-66
2021/05/22 02:40:55;;;;;;;1.70;0.70;;;;;;;;;;4993495;28;20776;-67
2021/05/22 02:43:21;;;;;;;1.50;0.80;;;;;;;;;;4975492;28;20429;-67
2021/05/22 02:45:48;;;;;;;1.30;0.70;;;;;;;;;;4974400;28;20768;-67
2021/05/22 02:48:19;;;;;;;1.30;0.70;;;;;;;;;;4979800;28;20448;-66
2021/05/22 02:50:46;;;;;;;1.90;0.80;;;;;;;;;;4993405;28;20408;-67
2021/05/22 02:53:13;;;;;;;1.33;0.83;;;;;;;;;;4992561;28;20494;-67
2021/05/22 02:55:39;;;;;;;1.27;0.70;;;;;;;;;;4993609;28;20404;-67
2021/05/22 02:58:06;;;;;;;2.00;0.70;;;;;;;;;;4989668;28;20455;-67
2021/05/22 03:00:33;;;;;;;1.30;0.70;;;;;;;;;;4993302;28;20511;-67
2021/05/22 03:02:59;;;;;;;1.47;0.80;;;;;;;;;;4992476;28;20433;-67
2021/05/22 03:05:25;;;;;;;1.30;0.77;;;;;;;;;;4993594;28;20423;-67
2021/05/22 03:07:51;;;;;;;1.30;0.70;;;;;;;;;;4979176;28;20966;-67
2021/05/22 03:10:18;;;;;;;2.23;0.80;;;;;;;;;;4977228;28;20432;-67
2021/05/22 03:12:44;;;;;;;1.20;0.60;;;;;;;;;;4987202;28;20511;-67
2021/05/22 03:15:11;;;;;;;1.77;0.80;;;;;;;;;;4997142;28;20893;-67
2021/05/22 03:17:37;;;;;;;1.60;0.90;;;;;;;;;;4986340;28;20453;-66
2021/05/22 03:20:05;;;;;;;3.80;1.03;;;;;;;;;;4977556;28;20421;-66
2021/05/22 03:22:31;;;;;;;2.53;0.90;;;;;;;;;;4986047;28;20420;-66
2021/05/22 03:24:57;;;;;;;1.40;0.70;;;;;;;;;;4996933;28;20405;-67
2021/05/22 03:27:23;;;;;;;1.70;0.90;;;;;;;;;;4995813;28;20941;-67
2021/05/22 03:29:49;;;;;;;1.60;0.80;;;;;;;;;;4997191;28;20787;-67
2021/05/22 03:32:15;;;;;;;1.70;1.00;;;;;;;;;;4989035;28;20438;-67
2021/05/22 03:34:41;;;;;;;1.30;0.73;;;;;;;;;;4977611;28;20453;-66
2021/05/22 03:37:08;;;;;;;1.40;0.90;;;;;;;;;;4982180;28;20932;-67
2021/05/22 03:39:34;;;;;;;1.60;0.70;;;;;;;;;;4996696;28;20470;-67
2021/05/22 03:42:00;;;;;;;1.40;0.80;;;;;;;;;;5027455;28;20512;-67
2021/05/22 03:44:26;;;;;;;2.37;0.80;;;;;;;;;;4996653;28;20490;-67
2021/05/22 03:46:52;;;;;;;1.20;0.60;;;;;;;;;;4995848;28;20815;-67
2021/05/22 03:49:18;;;;;;;2.80;0.80;;;;;;;;;;4996691;28;20817;-67
2021/05/22 03:51:45;;;;;;;1.60;0.70;;;;;;;;;;4994475;28;20450;-67
2021/05/22 03:54:11;;;;;;;1.30;0.80;;;;;;;;;;4976527;28;20457;-67
2021/05/22 03:56:37;;;;;;;1.80;0.80;;;;;;;;;;4976803;28;20473;-67
2021/05/22 03:59:03;;;;;;;1.30;0.80;;;;;;;;;;4976870;28;20476;-67
2021/05/22 04:01:29;;;;;;;1.37;0.70;;;;;;;;;;4976941;28;20776;-66
2021/05/22 04:03:55;;;;;;;1.40;0.80;;;;;;;;;;4989803;28;20440;-67
2021/05/22 04:06:21;;;;;;;1.40;0.80;;;;;;;;;;4977193;28;21120;-67
2021/05/22 04:08:48;;;;;;;1.57;0.90;;;;;;;;;;4993867;28;20448;-67
2021/05/22 04:11:14;;;;;;;1.30;0.80;;;;;;;;;;4995047;28;20432;-68
2021/05/22 04:13:40;;;;;;;1.70;0.97;;;;;;;;;;4993553;28;20570;-67
2021/05/22 04:16:06;;;;;;;1.50;0.80;;;;;;;;;;4992314;28;20928;-67
2021/05/22 04:18:32;;;;;;;1.60;0.80;;;;;;;;;;4994160;28;20507;-71
2021/05/22 04:20:58;;;;;;;1.40;0.80;;;;;;;;;;4993982;28;20444;-70
2021/05/22 04:23:24;;;;;;;1.40;0.70;;;;;;;;;;4994523;28;20793;-69
2021/05/22 04:25:50;;;;;;;1.40;0.73;;;;;;;;;;4995757;28;20468;-69
2021/05/22 04:28:16;;;;;;;1.50;1.00;;;;;;;;;;4994296;28;20448;-69
2021/05/22 04:30:42;;;;;;;1.70;1.00;;;;;;;;;;4995995;28;20463;-69
2021/05/22 04:33:08;;;;;;;1.40;0.77;;;;;;;;;;4994765;28;21048;-69
2021/05/22 04:35:34;;;;;;;1.50;0.90;;;;;;;;;;4994193;28;20817;-69
2021/05/22 04:38:00;;;;;;;1.70;0.90;;;;;;;;;;4993507;28;20440;-69
2021/05/22 04:40:26;;;;;;;8.43;0.97;;;;;;;;;;4994515;28;20409;-68
2021/05/22 04:42:53;;;;;;;1.33;0.80;;;;;;;;;;4994491;28;20821;-68
2021/05/22 04:45:19;;;;;;;2.73;0.80;;;;;;;;;;4996297;28;20516;-68
2021/05/22 04:47:45;;;;;;;2.10;0.83;;;;;;;;;;4988002;28;20504;-67
2021/05/22 04:50:11;;;;;;;1.47;0.83;;;;;;;;;;4976083;28;20400;-68
2021/05/22 04:52:39;;;;;;;2.43;0.90;;;;;;;;;;4980332;28;20423;-68
2021/05/22 04:55:05;;;;;;;1.30;0.63;;;;;;;;;;4994591;28;20455;-68
2021/05/22 04:57:34;;;;;;;1.40;0.80;;;;;;;;;;4994896;28;20872;-68
2021/05/22 05:00:00;;;;;;;1.60;1.10;;;;;;;;;;5027153;28;20593;-68
2021/05/22 05:02:26;;;;;;;1.47;0.87;;;;;;;;;;4994834;28;20870;-68
2021/05/22 05:04:52;;;;;;;1.40;0.90;;;;;;;;;;4995347;28;20409;-68
2021/05/22 05:07:18;;;;;;;1.33;0.80;;;;;;;;;;4994268;28;20940;-68
2021/05/22 05:09:45;;;;;;;2.33;0.80;;;;;;;;;;4995096;28;20427;-68
2021/05/22 05:12:13;;;;;;;1.60;0.83;;;;;;;;;;4994297;28;20555;-68
2021/05/22 05:14:39;;;;;;;1.97;1.00;;;;;;;;;;4995306;28;20444;-68
2021/05/22 05:17:05;;;;;;;1.50;0.97;;;;;;;;;;4983184;28;20417;-68
2021/05/22 05:19:32;;;;;;;2.13;0.83;;;;;;;;;;4975719;28;20800;-68
2021/05/22 05:21:58;;;;;;;1.40;0.80;;;;;;;;;;4985501;28;20421;-68
2021/05/22 05:24:24;;;;;;;1.53;0.90;;;;;;;;;;4990642;28;20421;-68
2021/05/22 05:26:50;;;;;;;1.40;0.90;;;;;;;;;;4994763;28;20484;-68
2021/05/22 05:29:17;;;;;;;3.30;1.00;;;;;;;;;;4979457;28;20449;-68
2021/05/22 05:31:43;;;;;;;1.40;0.73;;;;;;;;;;4974791;28;20492;-68
2021/05/22 05:34:09;;;;;;;1.83;0.80;;;;;;;;;;4974630;28;20519;-68
2021/05/22 05:36:36;;;;;;;2.27;0.90;;;;;;;;;;4975484;28;20401;-68
2021/05/22 05:39:03;;;;;;;1.70;0.80;;;;;;;;;;4975409;28;20552;-68
2021/05/22 05:41:29;;;;;;;2.63;0.90;;;;;;;;;;4975037;28;20398;-68
2021/05/22 05:43:55;;;;;;;2.23;0.90;;;;;;;;;;4985474;28;20443;-68
2021/05/22 05:46:21;;;;;;;1.70;0.87;;;;;;;;;;4994679;28;20822;-68
2021/05/22 05:48:47;;;;;;;1.50;0.97;;;;;;;;;;4993603;28;20449;-68
2021/05/22 05:51:13;;;;;;;1.60;0.77;;;;;;;;;;4994415;28;20412;-68
2021/05/22 05:53:39;;;;;;;1.90;0.90;;;;;;;;;;4985379;28;20544;-68
2021/05/22 05:56:05;;;;;;;2.40;1.23;;;;;;;;;;4975110;28;20405;-68
2021/05/22 05:58:32;;;;;;;1.90;0.80;;;;;;;;;;4980398;28;20476;-68
2021/05/22 06:00:58;;;;;;;2.10;0.83;;;;;;;;;;4994127;28;21036;-68
2021/05/22 06:03:28;;;;;;;1.60;0.93;;;;;;;;;;4993502;28;20424;-68
2021/05/22 06:05:54;;;;;;;1.30;0.77;;;;;;;;;;4994213;28;20424;-68
2021/05/22 06:08:20;;;;;;;2.80;1.10;;;;;;;;;;4993518;28;20885;-68
2021/05/22 06:10:48;;;;;;;1.77;0.77;;;;;;;;;;4994032;28;20894;-68
2021/05/22 06:13:29;;;;;;;5.83;1.10;;;;;;;;;;4992896;28;20452;-68
2021/05/22 06:18:30;;;;;;;2.23;0.90;;;;;;;;;;4988002;28;20781;-68
2021/05/22 06:20:57;;;;;;;4.43;0.90;;;;;;;;;;4974540;28;20401;-68
2021/05/22 06:23:24;;;;;;;1.90;1.20;;;;;;;;;;4974320;28;20432;-68
2021/05/22 06:25:50;;;;;;;3.10;1.10;;;;;;;;;;5005437;28;20468;-68
2021/05/22 06:28:16;;;;;;;8.40;1.20;;;;;;;;;;4988692;28;20436;-68
2021/05/22 06:30:42;;;;;;;1.90;1.00;;;;;;;;;;4993748;28;20409;-68
2021/05/22 06:33:09;;;;;;;1.50;0.87;;;;;;;;;;4992712;28;21131;-68
2021/05/22 06:35:35;;;;;;;1.80;0.90;;;;;;;;;;5025293;28;20437;-68
2021/05/22 06:38:01;;;;;;;2.83;1.00;;;;;;;;;;4992733;28;20942;-68
2021/05/22 06:40:27;;;;;;;2.63;1.00;;;;;;;;;;4993505;28;20412;-68
2021/05/22 06:42:53;;;;;;;2.97;1.10;;;;;;;;;;4992916;28;20401;-68
2021/05/22 06:45:21;;;;;;;3.30;1.00;;;;;;;;;;4993116;28;20424;-68
2021/05/22 06:47:48;;;;;;;1.80;1.13;;;;;;;;;;4991702;28;20833;-68
2021/05/22 06:50:14;;;;;;;1.57;0.80;;;;;;;;;;4974307;28;20524;-68
2021/05/22 06:52:40;;;;;;;2.87;1.10;;;;;;;;;;4988768;28;20958;-68
2021/05/22 06:55:07;;;;;;;1.67;1.10;;;;;;;;;;4991321;28;20805;-68
2021/05/22 06:57:33;;;;;;;2.50;1.23;;;;;;;;;;4993421;28;20516;-68
2021/05/22 06:59:59;;;;;;;2.30;1.07;;;;;;;;;;4976771;28;20511;-68
2021/05/22 07:02:25;;;;;;;2.40;0.90;;;;;;;;;;4974320;28;20424;-68
2021/05/22 07:04:52;;;;;;;1.70;1.07;;;;;;;;;;4988384;28;20432;-68
2021/05/22 07:07:18;;;;;;;2.53;1.17;;;;;;;;;;4993618;28;20817;-68
2021/05/22 07:09:44;;;;;;;1.50;0.87;;;;;;;;;;4992515;28;20425;-68
2021/05/22 07:12:10;;;;;;;5.53;1.03;;;;;;;;;;4993737;28;20411;-68
2021/05/22 07:14:37;;;;;;;2.03;1.03;;;;;;;;;;4979944;28;20499;-67
2021/05/22 07:17:03;;;;;;;2.43;0.97;;;;;;;;;;4973827;28;20404;-67
2021/05/22 07:19:29;;;;;;;3.27;1.50;;;;;;;;;;4984599;28;20540;-67
2021/05/22 07:21:56;;;;;;;2.23;1.07;;;;;;;;;;4993474;28;20435;-67
2021/05/22 07:24:22;;;;;;;1.70;0.80;;;;;;;;;;4982629;28;20848;-67
2021/05/22 07:26:48;;;;;;;2.13;1.20;;;;;;;;;;4973933;28;20917;-67
2021/05/22 07:29:15;;;;;;;3.70;1.60;;;;;;;;;;4980932;28;20883;-67
2021/05/22 07:31:42;;;;;;;4.40;1.20;;;;;;;;;;4993213;28;20404;-67
2021/05/22 07:34:09;;;;;;;2.60;1.20;;;;;;;;;;4984800;28;20493;-67
2021/05/22 07:36:39;;;;;;;3.47;1.67;;;;;;;;;;4974023;28;20398;-67
2021/05/22 07:39:06;;;;;;;2.93;1.20;;;;;;;;;;4980354;28;20497;-67
2021/05/22 07:41:32;;;;;;;7.40;1.53;;;;;;;;;;4993706;28;20404;-67
2021/05/22 07:43:59;;;;;;;3.73;1.10;;;;;;;;;;4991346;28;20441;-67
2021/05/22 07:46:25;;;;;;;6.77;1.57;;;;;;;;;;4992966;28;20409;-67
2021/05/22 07:48:52;;;;;;;2.10;1.00;;;;;;;;;;4991225;28;20432;-67
2021/05/22 07:51:18;;;;;;;2.33;1.27;;;;;;;;;;4992966;28;20837;-67
2021/05/22 07:53:44;;;;;;;3.43;1.50;;;;;;;;;;4991884;28;20988;-67
2021/05/22 07:56:10;;;;;;;2.47;1.50;;;;;;;;;;4994700;28;20408;-67
2021/05/22 07:58:36;;;;;;;3.97;1.20;;;;;;;;;;4995437;28;20444;-67
2021/05/22 08:01:02;;;;;;;3.20;1.40;;;;;;;;;;4996381;28;20428;-67
2021/05/22 08:03:28;;;;;;;3.10;1.10;;;;;;;;;;4994714;28;20432;-67
2021/05/22 08:05:54;;;;;;;4.33;1.37;;;;;;;;;;4977091;28;20779;-67
2021/05/22 08:08:20;;;;;;;2.53;1.17;;;;;;;;;;4984135;28;20783;-67
2021/05/22 08:10:47;;;;;;;5.83;1.60;;;;;;;;;;4977032;28;20409;-67
2021/05/22 08:13:13;;;;;;;3.10;1.47;;;;;;;;;;4976802;28;20974;-67
2021/05/22 08:15:40;;;;;;;2.50;1.33;;;;;;;;;;4994599;28;20420;-67
2021/05/22 08:18:06;;;;;;;3.97;1.03;;;;;;;;;;4996036;28;20516;-69
2021/05/22 08:20:33;;;;;;;3.00;1.30;;;;;;;;;;4995189;28;20921;-69
2021/05/22 08:22:59;;;;;;;6.10;1.23;;;;;;;;;;4996024;28;20516;-69
2021/05/22 08:25:25;;;;;;;2.33;1.30;;;;;;;;;;4994924;28;20499;-69
2021/05/22 08:27:52;;;;;;;3.70;1.20;;;;;;;;;;4996089;28;20419;-69
2021/05/22 08:30:19;;;;;;;4.80;1.80;;;;;;;;;;4980226;28;20918;-69
2021/05/22 08:32:45;;;;;;;2.17;1.03;;;;;;;;;;4976465;28;20398;-69
2021/05/22 08:35:11;;;;;;;3.87;1.27;;;;;;;;;;5020939;28;20451;-69
2021/05/22 08:37:37;;;;;;;3.13;1.40;;;;;;;;;;4995462;28;20507;-69
2021/05/22 08:40:04;;;;;;;5.33;1.03;;;;;;;;;;4994719;28;20416;-69
2021/05/22 08:42:31;;;;;;;4.00;1.40;;;;;;;;;;4981458;28;20934;-69
2021/05/22 08:45:06;;;;;;;3.60;1.10;;;;;;;;;;4987130;28;20591;-69
2021/05/22 08:47:32;;;;;;;5.73;1.30;;;;;;;;;;4994771;28;20758;-69
2021/05/22 08:49:58;;;;;;;6.67;1.70;;;;;;;;;;4994373;28;20424;-69
2021/05/22 08:52:24;;;;;;;2.33;1.33;;;;;;;;;;4995539;28;20421;-69
2021/05/22 08:54:51;;;;;;;2.93;1.00;;;;;;;;;;4994326;28;20458;-69
2021/05/22 08:57:17;;;;;;;6.00;1.27;;;;;;;;;;4995382;28;20768;-69
2021/05/22 08:59:46;;;;;;;3.50;1.87;;;;;;;;;;4986140;28;20416;-69
2021/05/22 09:02:13;;;;;;;5.00;1.00;;;;;;;;;;5026767;28;20427;-69
2021/05/22 09:04:58;;;;;;;2.27;1.27;;;;;;;;;;4994257;28;20483;-69
2021/05/22 09:07:24;;;;;;;2.10;0.93;;;;;;;;;;4994787;28;20397;-69
2021/05/22 09:09:50;;;;;;;2.43;0.90;;;;;;;;;;4994002;28;20416;-69
2021/05/22 09:12:19;;;;;;;2.20;1.20;;;;;;;;;;4995052;28;20484;-69
2021/05/22 09:14:49;;;;;;;4.60;1.23;;;;;;;;;;4994278;28;20816;-69
2021/05/22 09:17:15;;;;;;;4.23;1.40;;;;;;;;;;4995011;28;20436;-69
2021/05/22 09:19:42;;;;;;;4.70;1.40;;;;;;;;;;4994000;28;20420;-69
2021/05/22 09:22:26;;;;;;;4.60;1.13;;;;;;;;;;4995052;28;20429;-69
2021/05/22 09:25:03;;;;;;;2.47;0.80;;;;;;;;;;4994011;28;20431;-68
2021/05/22 09:27:36;;;;;;;3.47;1.27;;;;;;;;;;4994835;28;20809;-68
2021/05/22 09:30:21;;;;;;;8.43;1.90;;;;;;;;;;4992402;28;20436;-68
2021/05/22 09:32:47;;;;;;;2.40;1.07;;;;;;;;;;4994894;28;20432;-68
2021/05/22 09:35:14;;;;;;;2.93;1.00;;;;;;;;;;4982252;28;20421;-68
2021/05/22 09:37:45;;;;;;;6.23;1.23;;;;;;;;;;4974938;28;20556;-68
2021/05/22 09:40:13;;;;;;;2.13;1.10;;;;;;;;;;4977328;28;20426;-68
2021/05/22 09:42:42;;;;;;;3.77;1.20;;;;;;;;;;4975137;28;20398;-68
2021/05/22 09:45:23;;;;;;;3.20;1.20;;;;;;;;;;4985430;28;20439;-68
2021/05/22 09:47:50;;;;;;;3.20;0.80;;;;;;;;;;4993041;28;20425;-68
2021/05/22 09:50:33;;;;;;;2.37;1.13;;;;;;;;;;4986585;28;20777;-68
2021/05/22 09:52:59;;;;;;;3.93;3.00;;;;;;;;;;4994444;28;20412;-68
2021/05/22 09:55:26;;;;;;;3.40;1.10;;;;;;;;;;4993267;28;20456;-68
2021/05/22 09:57:55;;;;;;;3.30;1.30;;;;;;;;;;4994081;28;20485;-68
2021/05/22 10:00:26;;;;;;;2.70;1.20;;;;;;;;;;4993315;28;20427;-68
2021/05/22 10:02:57;;;;;;;4.07;1.03;;;;;;;;;;4994435;28;20429;-68
2021/05/22 10:05:24;;;;;;;4.30;2.27;;;;;;;;;;4993067;28;20425;-68
2021/05/22 10:07:51;;;;;;;3.60;2.27;;;;;;;;;;4994117;28;20420;-67
2021/05/22 10:10:18;;;;;;;2.63;1.30;;;;;;;;;;4992950;28;20424;-67
2021/05/22 10:12:46;;;;;;;2.90;0.93;;;;;;;;;;4994102;28;20432;-68
2021/05/22 10:15:15;;;;;;;4.17;1.20;;;;;;;;;;4992941;28;20840;-67
2021/05/22 10:17:42;;;;;;;3.40;1.20;;;;;;;;;;4993743;28;20417;-67
2021/05/22 10:20:09;;;;;;;1.67;0.80;;;;;;;;;;4992519;28;20431;-68
2021/05/22 10:22:35;;;;;;;5.73;1.27;;;;;;;;;;4991938;28;20503;-68
2021/05/22 10:25:02;;;;;;;4.40;1.07;;;;;;;;;;4985082;28;20429;-67
2021/05/22 10:27:28;;;;;;;1.93;0.80;;;;;;;;;;4974353;28;20985;-68
2021/05/22 10:29:54;;;;;;;1.80;1.07;;;;;;;;;;4980824;28;20431;-67
2021/05/22 10:32:26;;;;;;;3.20;1.10;;;;;;;;;;4993806;28;20737;-67
2021/05/22 10:34:53;;;;;;;2.97;1.33;;;;;;;;;;4986478;28;20491;-67
2021/05/22 10:37:37;;;;;;;2.90;0.90;;;;;;;;;;4974229;28;20761;-67
2021/05/22 10:40:04;;;;;;;2.90;1.20;;;;;;;;;;4981945;28;20428;-67
2021/05/22 10:42:30;;;;;;;2.80;0.90;;;;;;;;;;4993803;28;20416;-67
2021/05/22 10:44:57;;;;;;;3.73;1.00;;;;;;;;;;4992525;28;20451;-68
2021/05/22 10:47:27;;;;;;;2.57;1.17;;;;;;;;;;4993551;28;20455;-68
2021/05/22 10:49:53;;;;;;;3.07;0.80;;;;;;;;;;4992264;28;20425;-67
2021/05/22 10:52:19;;;;;;;2.43;1.00;;;;;;;;;;4993564;28;20488;-67
2021/05/22 10:55:08;;;;;;;3.77;1.00;;;;;;;;;;4990513;28;20452;-67
2021/05/22 10:57:46;;;;;;;2.00;1.00;;;;;;;;;;4999409;22;20452;-82
2021/05/22 11:00:16;;;;;;;2.83;1.00;;;;;;;;;;5024812;28;20454;-84
2021/05/22 11:02:44;;;;;;;6.40;1.20;;;;;;;;;;5028482;28;20396;-84
2021/05/22 11:05:32;;;;;;;3.70;1.40;;;;;;;;;;5027996;28;20455;-84
2021/05/22 11:08:04;;;;;;;1.73;0.77;;;;;;;;;;5019947;28;20891;-84
2021/05/22 11:10:39;;;;;;;4.73;1.00;;;;;;;;;;5027367;28;20946;-84
2021/05/22 11:13:06;;;;;;;2.73;0.80;;;;;;;;;;5040694;22;20605;-71
2021/05/22 11:15:50;;;;;;;2.10;1.20;;;;;;;;;;5011913;28;20439;-71
2021/05/22 11:18:18;;;;;;;1.50;0.70;;;;;;;;;;5018217;28;20430;-71
2021/05/22 11:21:04;;;;;;;6.10;1.13;;;;;;;;;;5031583;28;20434;-70
2021/05/22 11:23:30;;;;;;;2.00;1.07;;;;;;;;;;5030191;28;20411;-70
2021/05/22 11:25:57;;;;;;;2.30;0.90;;;;;;;;;;5030235;28;20509;-70
2021/05/22 11:28:23;;;;;;;2.77;1.00;;;;;;;;;;5031662;28;20442;-70
2021/05/22 11:30:51;;;;;;;2.23;1.10;;;;;;;;;;5034087;28;20418;-70
2021/05/22 11:33:23;;;;;;;2.33;1.07;;;;;;;;;;5036515;28;20474;-72
2021/05/22 11:35:53;;;;;;;6.17;1.10;;;;;;;;;;5035551;28;20781;-72
2021/05/22 11:38:22;;;;;;;1.70;1.00;;;;;;;;;;5036406;28;20509;-71
2021/05/22 11:40:52;;;;;;;2.27;1.10;;;;;;;;;;5032939;28;20487;-71
2021/05/22 11:43:18;;;;;;;2.10;1.03;;;;;;;;;;5036849;28;21010;-72
2021/05/22 11:45:48;;;;;;;2.37;1.13;;;;;;;;;;5035061;28;20414;-71
2021/05/22 11:48:31;;;;;;;2.00;1.00;;;;;;;;;;5036084;28;20423;-71
2021/05/22 11:50:57;;;;;;;2.10;1.00;;;;;;;;;;5034930;28;20426;-71
2021/05/22 11:53:27;;;;;;;6.97;1.10;;;;;;;;;;5034525;28;20443;-71
2021/05/22 11:55:58;;;;;;;3.20;0.90;;;;;;;;;;5035042;28;20431;-71
2021/05/22 11:58:24;;;;;;;3.07;1.40;;;;;;;;;;5034465;28;20418;-72
2021/05/22 12:00:50;;;;;;;3.00;1.10;;;;;;;;;;5034913;28;20484;-71
2021/05/22 12:03:23;;;;;;;2.17;1.03;;;;;;;;;;5035744;28;20478;-72
2021/05/22 12:05:50;;;;;;;1.67;0.97;;;;;;;;;;5034623;28;20463;-71
2021/05/22 12:08:21;;;;;;;2.20;1.07;;;;;;;;;;5034243;28;20541;-71
2021/05/22 12:10:47;;;;;;;1.87;0.90;;;;;;;;;;5034477;28;20414;-72
2021/05/22 12:13:13;;;;;;;1.70;0.83;;;;;;;;;;5035390;28;20454;-72
2021/05/22 12:15:42;;;;;;;1.63;0.80;;;;;;;;;;5034676;28;20411;-71
2021/05/22 12:18:08;;;;;;;3.10;0.87;;;;;;;;;;5035398;28;20430;-71
2021/05/22 12:20:48;;;;;;;4.40;1.67;;;;;;;;;;5034413;28;20770;-71
2021/05/22 12:23:26;;;;;;;1.60;0.90;;;;;;;;;;5034483;28;20517;-69
2021/05/22 12:25:53;;;;;;;2.83;1.10;;;;;;;;;;5034189;28;20572;-68
2021/05/22 12:28:19;;;;;;;2.30;0.97;;;;;;;;;;5033803;28;20426;-69
2021/05/22 12:30:46;;;;;;;2.03;1.00;;;;;;;;;;5034215;28;20426;-69
2021/05/22 12:33:15;;;;;;;2.93;1.03;;;;;;;;;;5035132;28;20540;-69
2021/05/22 12:35:41;;;;;;;2.27;0.97;;;;;;;;;;5034143;28;20885;-68
2021/05/22 12:38:07;;;;;;;2.33;1.10;;;;;;;;;;5035198;28;20447;-69
2021/05/22 12:40:46;;;;;;;2.60;0.90;;;;;;;;;;5034291;28;20398;-68
2021/05/22 12:43:13;;;;;;;2.87;0.90;;;;;;;;;;5034711;28;20766;-71
2021/05/22 12:45:43;;;;;;;1.50;0.80;;;;;;;;;;5034063;28;20465;-71
2021/05/22 12:48:22;;;;;;;2.60;1.03;;;;;;;;;;5035068;28;20451;-72
2021/05/22 12:50:48;;;;;;;2.80;0.97;;;;;;;;;;5034380;28;20426;-71
2021/05/22 12:53:14;;;;;;;2.10;0.97;;;;;;;;;;5033784;28;20519;-71
2021/05/22 12:55:40;;;;;;;2.57;1.03;;;;;;;;;;5033840;28;20423;-68
2021/05/22 12:58:20;;;;;;;2.77;0.80;;;;;;;;;;5034280;28;20966;-70
2021/05/22 13:00:50;;;;;;;2.20;0.90;;;;;;;;;;5034759;28;20757;-70
2021/05/22 13:03:16;;;;;;;3.80;1.10;;;;;;;;;;5034128;28;20521;-71
2021/05/22 13:05:48;;;;;;;2.33;1.00;;;;;;;;;;5034632;28;20471;-70
2021/05/22 13:08:23;;;;;;;3.50;0.90;;;;;;;;;;5033585;28;20441;-70
2021/05/22 13:10:50;;;;;;;3.33;1.10;;;;;;;;;;5034457;28;20789;-70
2021/05/22 13:13:17;;;;;;;2.50;1.30;;;;;;;;;;5033301;28;20878;-71
2021/05/22 13:15:47;;;;;;;2.57;1.03;;;;;;;;;;5033147;28;20411;-70
2021/05/22 13:18:15;;;;;;;3.47;1.13;;;;;;;;;;5033359;28;20484;-70
2021/05/22 13:20:45;;;;;;;2.00;0.93;;;;;;;;;;5034595;28;20399;-72
2021/05/22 13:23:13;;;;;;;2.07;0.97;;;;;;;;;;5033329;28;20426;-72
2021/05/22 13:25:39;;;;;;;3.23;1.17;;;;;;;;;;5034599;28;20482;-72
2021/05/22 13:28:05;;;;;;;4.23;0.97;;;;;;;;;;5033098;28;20496;-71
2021/05/22 13:30:33;;;;;;;2.73;1.53;;;;;;;;;;5032433;28;20472;-71
2021/05/22 13:32:59;;;;;;;3.03;1.07;;;;;;;;;;5033427;28;20421;-71
2021/05/22 13:35:28;;;;;;;3.67;1.60;;;;;;;;;;5034445;28;20395;-72
2021/05/22 13:37:55;;;;;;;2.43;0.97;;;;;;;;;;5033574;28;20497;-72
2021/05/22 13:40:24;;;;;;;2.00;1.07;;;;;;;;;;5034070;28;20399;-72
2021/05/22 13:42:50;;;;;;;2.20;1.03;;;;;;;;;;5029991;28;20441;-72
2021/05/22 13:45:16;;;;;;;3.23;1.13;;;;;;;;;;5033983;28;20431;-71
2021/05/22 13:47:42;;;;;;;3.20;0.90;;;;;;;;;;5032793;28;20418;-71
2021/05/22 13:50:09;;;;;;;4.27;1.10;;;;;;;;;;5033943;28;20398;-72
2021/05/22 13:52:35;;;;;;;5.03;1.07;;;;;;;;;;5032018;28;20423;-72
2021/05/22 13:55:03;;;;;;;3.83;1.13;;;;;;;;;;5033415;28;20810;-70
2021/05/22 13:57:29;;;;;;;2.27;1.10;;;;;;;;;;5032012;28;20423;-70
2021/05/22 13:59:55;;;;;;;2.23;0.80;;;;;;;;;;5033622;28;20419;-69
2021/05/22 14:02:21;;;;;;;3.30;1.63;;;;;;;;;;5032802;28;20483;-70
2021/05/22 14:04:47;;;;;;;1.80;0.83;;;;;;;;;;5032609;28;20426;-72
2021/05/22 14:07:13;;;;;;;1.90;0.80;;;;;;;;;;5032433;28;20440;-71
2021/05/22 14:09:40;;;;;;;2.83;1.10;;;;;;;;;;5033346;28;20433;-72
2021/05/22 14:12:06;;;;;;;2.00;1.03;;;;;;;;;;5032302;28;20490;-71
2021/05/22 14:14:32;;;;;;;2.93;1.13;;;;;;;;;;5033299;28;20476;-71
2021/05/22 14:16:58;;;;;;;2.50;1.17;;;;;;;;;;5032535;28;20419;-71
2021/05/22 14:19:24;;;;;;;2.37;0.90;;;;;;;;;;5033506;28;20445;-71
2021/05/22 14:21:50;;;;;;;4.50;1.10;;;;;;;;;;5032360;28;20461;-71
2021/05/22 14:24:16;;;;;;;2.27;1.00;;;;;;;;;;5033494;28;20457;-71
2021/05/22 14:26:44;;;;;;;1.77;0.93;;;;;;;;;;5032672;28;20401;-71
2021/05/22 14:29:10;;;;;;;1.80;0.83;;;;;;;;;;5033312;28;20461;-71
2021/05/22 14:31:36;;;;;;;3.10;1.00;;;;;;;;;;5032259;28;20847;-72
2021/05/22 14:34:02;;;;;;;2.53;0.90;;;;;;;;;;5032970;28;20458;-71
2021/05/22 14:36:28;;;;;;;5.20;1.40;;;;;;;;;;5031168;28;20402;-73
2021/05/22 14:38:54;;;;;;;1.87;0.80;;;;;;;;;;5032583;28;20423;-72
2021/05/22 14:41:21;;;;;;;2.00;0.90;;;;;;;;;;5033183;28;20395;-72
2021/05/22 14:43:47;;;;;;;4.23;1.30;;;;;;;;;;5031099;28;20427;-70
2021/05/22 14:46:13;;;;;;;3.13;1.40;;;;;;;;;;5031239;28;20446;-72
2021/05/22 14:48:43;;;;;;;4.80;2.10;;;;;;;;;;5032386;28;20447;-72